sensor_id;sensor_type;location;lat;lon;timestamp;P1;durP1;ratioP1;P2;durP2;ratioP2
30872;SDS011;17579;42.690;2.586;2024-03-29T00:02:23;1.85;;;1.00;;
30872;SDS011;17579;42.690;2.586;2024-03-29T00:05:07;2.65;;;0.80;;
30872;SDS011;17579;42.690;2.586;2024-03-29T00:07:33;3.95;;;1.20;;
30872;SDS011;17579;42.690;2.586;2024-03-29T00:10:07;4.47;;;1.30;;
30872;SDS011;17579;42.690;2.586;2024-03-29T00:12:51;1.52;;;0.93;;
30872;SDS011;17579;42.690;2.586;2024-03-29T00:15:16;4.57;;;1.20;;
30872;SDS011;17579;42.690;2.586;2024-03-29T00:17:42;3.45;;;1.02;;
30872;SDS011;17579;42.690;2.586;2024-03-29T00:20:08;6.20;;;1.17;;
30872;SDS011;17579;42.690;2.586;2024-03-29T00:22:37;4.10;;;1.10;;
30872;SDS011;17579;42.690;2.586;2024-03-29T00:25:09;2.30;;;1.33;;
30872;SDS011;17579;42.690;2.586;2024-03-29T00:27:45;6.35;;;0.98;;
30872;SDS011;17579;42.690;2.586;2024-03-29T00:30:20;4.00;;;1.20;;
30872;SDS011;17579;42.690;2.586;2024-03-29T00:32:46;4.60;;;1.40;;
30872;SDS011;17579;42.690;2.586;2024-03-29T00:35:14;5.78;;;1.40;;
30872;SDS011;17579;42.690;2.586;2024-03-29T00:37:40;5.28;;;1.48;;
30872;SDS011;17579;42.690;2.586;2024-03-29T00:40:17;4.30;;;1.10;;
30872;SDS011;17579;42.690;2.586;2024-03-29T00:42:42;3.53;;;1.75;;
30872;SDS011;17579;42.690;2.586;2024-03-29T00:45:08;5.05;;;1.52;;
30872;SDS011;17579;42.690;2.586;2024-03-29T00:47:47;4.18;;;1.52;;
30872;SDS011;17579;42.690;2.586;2024-03-29T00:50:14;4.38;;;1.73;;
30872;SDS011;17579;42.690;2.586;2024-03-29T00:52:40;5.78;;;1.92;;
30872;SDS011;17579;42.690;2.586;2024-03-29T00:55:06;6.15;;;1.25;;
30872;SDS011;17579;42.690;2.586;2024-03-29T00:57:54;4.55;;;1.40;;
30872;SDS011;17579;42.690;2.586;2024-03-29T01:00:22;3.05;;;1.20;;
30872;SDS011;17579;42.690;2.586;2024-03-29T01:02:56;5.50;;;1.40;;
30872;SDS011;17579;42.690;2.586;2024-03-29T01:05:28;3.42;;;1.60;;
30872;SDS011;17579;42.690;2.586;2024-03-29T01:08:03;3.55;;;1.27;;
30872;SDS011;17579;42.690;2.586;2024-03-29T01:10:38;5.05;;;1.58;;
30872;SDS011;17579;42.690;2.586;2024-03-29T01:13:03;6.50;;;1.75;;
30872;SDS011;17579;42.690;2.586;2024-03-29T01:15:31;4.88;;;1.33;;
30872;SDS011;17579;42.690;2.586;2024-03-29T01:17:57;2.67;;;0.90;;
30872;SDS011;17579;42.690;2.586;2024-03-29T01:20:25;0.73;;;0.40;;
30872;SDS011;17579;42.690;2.586;2024-03-29T01:23:10;0.95;;;0.60;;
30872;SDS011;17579;42.690;2.586;2024-03-29T01:25:36;0.50;;;0.50;;
30872;SDS011;17579;42.690;2.586;2024-03-29T01:28:01;1.08;;;0.57;;
30872;SDS011;17579;42.690;2.586;2024-03-29T01:30:53;2.00;;;0.77;;
30872;SDS011;17579;42.690;2.586;2024-03-29T01:33:26;1.50;;;0.60;;
30872;SDS011;17579;42.690;2.586;2024-03-29T01:35:57;1.25;;;0.73;;
30872;SDS011;17579;42.690;2.586;2024-03-29T01:41:25;0.65;;;0.63;;
30872;SDS011;17579;42.690;2.586;2024-03-29T01:43:53;1.60;;;0.50;;
30872;SDS011;17579;42.690;2.586;2024-03-29T01:46:25;0.75;;;0.47;;
30872;SDS011;17579;42.690;2.586;2024-03-29T01:49:00;0.95;;;0.52;;
30872;SDS011;17579;42.690;2.586;2024-03-29T01:51:38;1.10;;;0.30;;
30872;SDS011;17579;42.690;2.586;2024-03-29T01:54:10;0.43;;;0.40;;
30872;SDS011;17579;42.690;2.586;2024-03-29T01:56:37;0.30;;;0.30;;
30872;SDS011;17579;42.690;2.586;2024-03-29T01:59:14;0.88;;;0.45;;
30872;SDS011;17579;42.690;2.586;2024-03-29T02:01:42;0.50;;;0.40;;
30872;SDS011;17579;42.690;2.586;2024-03-29T02:04:16;0.47;;;0.30;;
30872;SDS011;17579;42.690;2.586;2024-03-29T02:07:00;0.47;;;0.30;;
30872;SDS011;17579;42.690;2.586;2024-03-29T02:09:26;2.65;;;0.60;;
30872;SDS011;17579;42.690;2.586;2024-03-29T02:11:51;1.10;;;0.50;;
30872;SDS011;17579;42.690;2.586;2024-03-29T02:14:26;1.67;;;0.63;;
30872;SDS011;17579;42.690;2.586;2024-03-29T02:17:07;1.98;;;0.55;;
30872;SDS011;17579;42.690;2.586;2024-03-29T02:19:35;0.93;;;0.38;;
30872;SDS011;17579;42.690;2.586;2024-03-29T02:22:01;3.58;;;1.00;;
30872;SDS011;17579;42.690;2.586;2024-03-29T02:24:37;1.70;;;0.93;;
30872;SDS011;17579;42.690;2.586;2024-03-29T02:27:28;2.20;;;0.70;;
30872;SDS011;17579;42.690;2.586;2024-03-29T02:30:13;1.27;;;0.75;;
30872;SDS011;17579;42.690;2.586;2024-03-29T02:32:42;3.00;;;0.80;;
30872;SDS011;17579;42.690;2.586;2024-03-29T02:35:21;1.67;;;0.93;;
30872;SDS011;17579;42.690;2.586;2024-03-29T02:37:55;0.95;;;0.70;;
30872;SDS011;17579;42.690;2.586;2024-03-29T02:40:27;1.13;;;0.68;;
30872;SDS011;17579;42.690;2.586;2024-03-29T02:42:55;1.27;;;0.70;;
30872;SDS011;17579;42.690;2.586;2024-03-29T02:45:30;2.05;;;0.80;;
30872;SDS011;17579;42.690;2.586;2024-03-29T02:47:56;3.22;;;0.93;;
30872;SDS011;17579;42.690;2.586;2024-03-29T02:50:36;3.80;;;1.40;;
30872;SDS011;17579;42.690;2.586;2024-03-29T02:53:04;3.55;;;0.85;;
30872;SDS011;17579;42.690;2.586;2024-03-29T02:55:30;0.75;;;0.75;;
30872;SDS011;17579;42.690;2.586;2024-03-29T02:58:04;1.13;;;0.80;;
30872;SDS011;17579;42.690;2.586;2024-03-29T03:00:34;1.88;;;0.73;;
30872;SDS011;17579;42.690;2.586;2024-03-29T03:03:23;1.70;;;0.60;;
30872;SDS011;17579;42.690;2.586;2024-03-29T03:05:49;1.98;;;0.85;;
30872;SDS011;17579;42.690;2.586;2024-03-29T03:08:20;3.55;;;1.00;;
30872;SDS011;17579;42.690;2.586;2024-03-29T03:11:04;2.13;;;0.85;;
30872;SDS011;17579;42.690;2.586;2024-03-29T03:13:35;3.08;;;1.55;;
30872;SDS011;17579;42.690;2.586;2024-03-29T03:16:00;1.40;;;0.95;;
30872;SDS011;17579;42.690;2.586;2024-03-29T03:18:32;3.55;;;0.85;;
30872;SDS011;17579;42.690;2.586;2024-03-29T03:20:57;3.58;;;1.13;;
30872;SDS011;17579;42.690;2.586;2024-03-29T03:23:23;2.42;;;1.42;;
30872;SDS011;17579;42.690;2.586;2024-03-29T03:25:55;5.65;;;1.23;;
30872;SDS011;17579;42.690;2.586;2024-03-29T03:28:23;5.85;;;1.63;;
30872;SDS011;17579;42.690;2.586;2024-03-29T03:31:01;3.70;;;1.42;;
30872;SDS011;17579;42.690;2.586;2024-03-29T03:33:39;2.92;;;1.23;;
30872;SDS011;17579;42.690;2.586;2024-03-29T03:36:13;3.63;;;1.50;;
30872;SDS011;17579;42.690;2.586;2024-03-29T03:38:38;5.72;;;1.58;;
30872;SDS011;17579;42.690;2.586;2024-03-29T03:41:06;5.43;;;2.13;;
30872;SDS011;17579;42.690;2.586;2024-03-29T03:43:32;6.40;;;2.10;;
30872;SDS011;17579;42.690;2.586;2024-03-29T03:46:04;6.60;;;2.35;;
30872;SDS011;17579;42.690;2.586;2024-03-29T03:48:31;5.28;;;2.28;;
30872;SDS011;17579;42.690;2.586;2024-03-29T03:51:02;8.65;;;2.47;;
30872;SDS011;17579;42.690;2.586;2024-03-29T03:53:28;8.98;;;2.60;;
30872;SDS011;17579;42.690;2.586;2024-03-29T03:56:05;6.22;;;2.28;;
30872;SDS011;17579;42.690;2.586;2024-03-29T03:58:39;5.10;;;1.92;;
30872;SDS011;17579;42.690;2.586;2024-03-29T04:01:05;5.10;;;2.05;;
30872;SDS011;17579;42.690;2.586;2024-03-29T04:03:33;7.43;;;2.05;;
30872;SDS011;17579;42.690;2.586;2024-03-29T04:06:04;4.88;;;1.50;;
30872;SDS011;17579;42.690;2.586;2024-03-29T04:08:33;7.63;;;2.13;;
30872;SDS011;17579;42.690;2.586;2024-03-29T04:11:03;5.75;;;2.15;;
30872;SDS011;17579;42.690;2.586;2024-03-29T04:13:38;6.22;;;1.52;;
30872;SDS011;17579;42.690;2.586;2024-03-29T04:16:07;4.28;;;1.90;;
30872;SDS011;17579;42.690;2.586;2024-03-29T04:19:04;4.15;;;1.58;;
30872;SDS011;17579;42.690;2.586;2024-03-29T04:21:32;6.57;;;1.67;;
30872;SDS011;17579;42.690;2.586;2024-03-29T04:24:03;5.63;;;1.83;;
30872;SDS011;17579;42.690;2.586;2024-03-29T04:26:37;7.38;;;1.90;;
30872;SDS011;17579;42.690;2.586;2024-03-29T04:29:07;5.82;;;2.13;;
30872;SDS011;17579;42.690;2.586;2024-03-29T04:31:34;7.43;;;1.98;;
30872;SDS011;17579;42.690;2.586;2024-03-29T04:34:06;5.30;;;1.90;;
30872;SDS011;17579;42.690;2.586;2024-03-29T04:36:35;6.22;;;2.13;;
30872;SDS011;17579;42.690;2.586;2024-03-29T04:39:00;9.60;;;2.47;;
30872;SDS011;17579;42.690;2.586;2024-03-29T04:41:26;8.77;;;2.60;;
30872;SDS011;17579;42.690;2.586;2024-03-29T04:44:00;11.23;;;2.67;;
30872;SDS011;17579;42.690;2.586;2024-03-29T04:46:36;9.90;;;2.60;;
30872;SDS011;17579;42.690;2.586;2024-03-29T04:49:01;7.30;;;2.65;;
30872;SDS011;17579;42.690;2.586;2024-03-29T04:51:35;11.07;;;3.00;;
30872;SDS011;17579;42.690;2.586;2024-03-29T04:54:04;9.32;;;2.95;;
30872;SDS011;17579;42.690;2.586;2024-03-29T04:56:30;10.32;;;2.80;;
30872;SDS011;17579;42.690;2.586;2024-03-29T04:58:57;10.60;;;2.85;;
30872;SDS011;17579;42.690;2.586;2024-03-29T05:01:23;11.50;;;3.00;;
30872;SDS011;17579;42.690;2.586;2024-03-29T05:03:51;8.13;;;2.70;;
30872;SDS011;17579;42.690;2.586;2024-03-29T05:06:21;8.77;;;3.13;;
30872;SDS011;17579;42.690;2.586;2024-03-29T05:08:49;8.30;;;2.67;;
30872;SDS011;17579;42.690;2.586;2024-03-29T05:11:14;7.63;;;2.75;;
30872;SDS011;17579;42.690;2.586;2024-03-29T05:13:47;8.45;;;2.78;;
30872;SDS011;17579;42.690;2.586;2024-03-29T05:16:25;7.53;;;2.55;;
30872;SDS011;17579;42.690;2.586;2024-03-29T05:18:50;11.43;;;3.30;;
30872;SDS011;17579;42.690;2.586;2024-03-29T05:21:16;10.48;;;3.00;;
30872;SDS011;17579;42.690;2.586;2024-03-29T05:23:51;8.80;;;2.85;;
30872;SDS011;17579;42.690;2.586;2024-03-29T05:26:16;7.68;;;2.78;;
30872;SDS011;17579;42.690;2.586;2024-03-29T05:28:45;9.57;;;2.90;;
30872;SDS011;17579;42.690;2.586;2024-03-29T05:31:13;7.45;;;2.63;;
30872;SDS011;17579;42.690;2.586;2024-03-29T05:33:42;8.57;;;3.00;;
30872;SDS011;17579;42.690;2.586;2024-03-29T05:36:10;9.30;;;3.65;;
30872;SDS011;17579;42.690;2.586;2024-03-29T05:38:38;13.70;;;3.72;;
30872;SDS011;17579;42.690;2.586;2024-03-29T05:41:04;7.63;;;2.53;;
30872;SDS011;17579;42.690;2.586;2024-03-29T05:43:33;9.55;;;2.92;;
30872;SDS011;17579;42.690;2.586;2024-03-29T05:45:59;8.75;;;3.03;;
30872;SDS011;17579;42.690;2.586;2024-03-29T05:48:30;8.75;;;3.17;;
30872;SDS011;17579;42.690;2.586;2024-03-29T05:51:03;10.00;;;3.10;;
30872;SDS011;17579;42.690;2.586;2024-03-29T05:53:29;7.57;;;2.53;;
30872;SDS011;17579;42.690;2.586;2024-03-29T05:56:15;8.82;;;3.00;;
30872;SDS011;17579;42.690;2.586;2024-03-29T05:58:43;15.45;;;4.03;;
30872;SDS011;17579;42.690;2.586;2024-03-29T06:01:11;9.23;;;3.38;;
30872;SDS011;17579;42.690;2.586;2024-03-29T06:03:37;12.55;;;3.63;;
30872;SDS011;17579;42.690;2.586;2024-03-29T06:06:03;10.27;;;2.70;;
30872;SDS011;17579;42.690;2.586;2024-03-29T06:08:35;10.07;;;3.03;;
30872;SDS011;17579;42.690;2.586;2024-03-29T06:11:05;8.95;;;3.47;;
30872;SDS011;17579;42.690;2.586;2024-03-29T06:13:31;10.73;;;3.00;;
30872;SDS011;17579;42.690;2.586;2024-03-29T06:16:15;10.68;;;3.15;;
30872;SDS011;17579;42.690;2.586;2024-03-29T06:19:06;9.52;;;3.25;;
30872;SDS011;17579;42.690;2.586;2024-03-29T06:21:35;9.82;;;3.13;;
30872;SDS011;17579;42.690;2.586;2024-03-29T06:24:10;9.15;;;3.20;;
30872;SDS011;17579;42.690;2.586;2024-03-29T06:26:50;9.70;;;2.67;;
30872;SDS011;17579;42.690;2.586;2024-03-29T06:29:21;7.32;;;3.33;;
30872;SDS011;17579;42.690;2.586;2024-03-29T06:31:49;9.32;;;2.60;;
30872;SDS011;17579;42.690;2.586;2024-03-29T06:34:17;8.32;;;2.55;;
30872;SDS011;17579;42.690;2.586;2024-03-29T06:36:43;12.80;;;3.15;;
30872;SDS011;17579;42.690;2.586;2024-03-29T06:39:20;9.00;;;3.10;;
30872;SDS011;17579;42.690;2.586;2024-03-29T06:41:58;7.97;;;2.92;;
30872;SDS011;17579;42.690;2.586;2024-03-29T06:44:59;10.90;;;2.95;;
30872;SDS011;17579;42.690;2.586;2024-03-29T06:47:54;11.95;;;2.88;;
30872;SDS011;17579;42.690;2.586;2024-03-29T06:50:25;8.90;;;2.92;;
30872;SDS011;17579;42.690;2.586;2024-03-29T06:53:05;8.63;;;3.03;;
30872;SDS011;17579;42.690;2.586;2024-03-29T06:55:41;10.00;;;3.30;;
30872;SDS011;17579;42.690;2.586;2024-03-29T06:58:06;10.43;;;2.70;;
30872;SDS011;17579;42.690;2.586;2024-03-29T07:00:35;9.60;;;2.90;;
30872;SDS011;17579;42.690;2.586;2024-03-29T07:03:03;9.93;;;3.20;;
30872;SDS011;17579;42.690;2.586;2024-03-29T07:05:48;10.00;;;3.42;;
30872;SDS011;17579;42.690;2.586;2024-03-29T07:08:15;9.80;;;3.00;;
30872;SDS011;17579;42.690;2.586;2024-03-29T07:10:43;8.25;;;3.38;;
30872;SDS011;17579;42.690;2.586;2024-03-29T07:13:32;7.50;;;2.70;;
30872;SDS011;17579;42.690;2.586;2024-03-29T07:16:13;9.80;;;2.97;;
30872;SDS011;17579;42.690;2.586;2024-03-29T07:18:44;7.80;;;2.85;;
30872;SDS011;17579;42.690;2.586;2024-03-29T07:21:16;10.60;;;3.10;;
30872;SDS011;17579;42.690;2.586;2024-03-29T07:23:47;13.00;;;3.42;;
30872;SDS011;17579;42.690;2.586;2024-03-29T07:26:12;10.57;;;3.40;;
30872;SDS011;17579;42.690;2.586;2024-03-29T07:31:24;8.80;;;3.20;;
30872;SDS011;17579;42.690;2.586;2024-03-29T07:33:52;7.85;;;2.88;;
30872;SDS011;17579;42.690;2.586;2024-03-29T07:36:18;10.98;;;3.30;;
30872;SDS011;17579;42.690;2.586;2024-03-29T07:38:53;7.68;;;2.85;;
30872;SDS011;17579;42.690;2.586;2024-03-29T07:41:18;9.63;;;2.90;;
30872;SDS011;17579;42.690;2.586;2024-03-29T07:43:56;6.05;;;2.65;;
30872;SDS011;17579;42.690;2.586;2024-03-29T07:46:37;8.98;;;3.22;;
30872;SDS011;17579;42.690;2.586;2024-03-29T07:49:05;11.45;;;3.33;;
30872;SDS011;17579;42.690;2.586;2024-03-29T07:51:39;9.23;;;3.20;;
30872;SDS011;17579;42.690;2.586;2024-03-29T07:54:05;10.15;;;3.28;;
30872;SDS011;17579;42.690;2.586;2024-03-29T07:56:33;7.82;;;3.17;;
30872;SDS011;17579;42.690;2.586;2024-03-29T07:58:59;8.05;;;3.25;;
30872;SDS011;17579;42.690;2.586;2024-03-29T08:01:27;8.27;;;2.92;;
30872;SDS011;17579;42.690;2.586;2024-03-29T08:03:56;12.57;;;3.42;;
30872;SDS011;17579;42.690;2.586;2024-03-29T08:06:22;8.68;;;2.95;;
30872;SDS011;17579;42.690;2.586;2024-03-29T08:08:50;5.38;;;2.58;;
30872;SDS011;17579;42.690;2.586;2024-03-29T08:11:23;9.40;;;2.78;;
30872;SDS011;17579;42.690;2.586;2024-03-29T08:13:48;6.85;;;2.63;;
30872;SDS011;17579;42.690;2.586;2024-03-29T08:16:20;9.70;;;3.08;;
30872;SDS011;17579;42.690;2.586;2024-03-29T08:18:51;7.93;;;2.65;;
30872;SDS011;17579;42.690;2.586;2024-03-29T08:21:20;6.82;;;2.78;;
30872;SDS011;17579;42.690;2.586;2024-03-29T08:23:57;8.50;;;3.03;;
30872;SDS011;17579;42.690;2.586;2024-03-29T08:26:25;8.57;;;2.80;;
30872;SDS011;17579;42.690;2.586;2024-03-29T08:28:53;6.57;;;2.63;;
30872;SDS011;17579;42.690;2.586;2024-03-29T08:31:21;9.73;;;3.17;;
30872;SDS011;17579;42.690;2.586;2024-03-29T08:33:53;9.98;;;2.92;;
30872;SDS011;17579;42.690;2.586;2024-03-29T08:36:22;11.55;;;2.95;;
30872;SDS011;17579;42.690;2.586;2024-03-29T08:38:49;8.95;;;2.80;;
30872;SDS011;17579;42.690;2.586;2024-03-29T08:41:24;9.30;;;3.20;;
30872;SDS011;17579;42.690;2.586;2024-03-29T08:43:50;6.85;;;3.08;;
30872;SDS011;17579;42.690;2.586;2024-03-29T08:46:18;5.95;;;2.58;;
30872;SDS011;17579;42.690;2.586;2024-03-29T08:48:43;7.07;;;2.83;;
30872;SDS011;17579;42.690;2.586;2024-03-29T08:51:19;8.32;;;3.20;;
30872;SDS011;17579;42.690;2.586;2024-03-29T08:53:54;8.05;;;2.55;;
30872;SDS011;17579;42.690;2.586;2024-03-29T08:56:25;8.27;;;2.75;;
30872;SDS011;17579;42.690;2.586;2024-03-29T08:58:53;7.35;;;3.17;;
30872;SDS011;17579;42.690;2.586;2024-03-29T09:01:19;4.75;;;2.05;;
30872;SDS011;17579;42.690;2.586;2024-03-29T09:03:47;5.70;;;2.40;;
30872;SDS011;17579;42.690;2.586;2024-03-29T09:06:15;4.60;;;2.15;;
30872;SDS011;17579;42.690;2.586;2024-03-29T09:08:43;6.15;;;1.73;;
30872;SDS011;17579;42.690;2.586;2024-03-29T09:11:11;8.27;;;2.40;;
30872;SDS011;17579;42.690;2.586;2024-03-29T09:13:44;7.30;;;2.60;;
30872;SDS011;17579;42.690;2.586;2024-03-29T09:16:30;6.60;;;2.42;;
30872;SDS011;17579;42.690;2.586;2024-03-29T09:18:55;7.72;;;3.00;;
30872;SDS011;17579;42.690;2.586;2024-03-29T09:21:24;8.63;;;2.63;;
30872;SDS011;17579;42.690;2.586;2024-03-29T09:23:52;6.00;;;2.10;;
30872;SDS011;17579;42.690;2.586;2024-03-29T09:26:21;7.82;;;2.38;;
30872;SDS011;17579;42.690;2.586;2024-03-29T09:28:47;5.15;;;2.33;;
30872;SDS011;17579;42.690;2.586;2024-03-29T09:31:12;6.50;;;2.13;;
30872;SDS011;17579;42.690;2.586;2024-03-29T09:33:52;6.25;;;2.22;;
30872;SDS011;17579;42.690;2.586;2024-03-29T09:36:21;4.50;;;1.88;;
30872;SDS011;17579;42.690;2.586;2024-03-29T09:38:56;8.73;;;2.30;;
30872;SDS011;17579;42.690;2.586;2024-03-29T09:41:21;7.25;;;2.47;;
30872;SDS011;17579;42.690;2.586;2024-03-29T09:43:51;4.65;;;2.13;;
30872;SDS011;17579;42.690;2.586;2024-03-29T09:46:20;5.45;;;1.92;;
30872;SDS011;17579;42.690;2.586;2024-03-29T09:48:46;4.63;;;2.20;;
30872;SDS011;17579;42.690;2.586;2024-03-29T09:51:22;5.10;;;1.95;;
30872;SDS011;17579;42.690;2.586;2024-03-29T09:53:53;5.90;;;2.17;;
30872;SDS011;17579;42.690;2.586;2024-03-29T09:56:28;4.43;;;1.70;;
30872;SDS011;17579;42.690;2.586;2024-03-29T09:58:56;7.57;;;2.05;;
30872;SDS011;17579;42.690;2.586;2024-03-29T10:01:22;2.53;;;1.58;;
30872;SDS011;17579;42.690;2.586;2024-03-29T10:03:53;6.40;;;2.45;;
30872;SDS011;17579;42.690;2.586;2024-03-29T10:06:24;5.35;;;2.05;;
30872;SDS011;17579;42.690;2.586;2024-03-29T10:08:58;4.88;;;1.80;;
30872;SDS011;17579;42.690;2.586;2024-03-29T10:11:45;5.53;;;2.00;;
30872;SDS011;17579;42.690;2.586;2024-03-29T10:14:12;3.25;;;1.83;;
30872;SDS011;17579;42.690;2.586;2024-03-29T10:16:40;6.13;;;1.55;;
30872;SDS011;17579;42.690;2.586;2024-03-29T10:19:06;3.72;;;1.80;;
30872;SDS011;17579;42.690;2.586;2024-03-29T10:21:33;4.38;;;1.80;;
30872;SDS011;17579;42.690;2.586;2024-03-29T10:24:11;4.90;;;2.22;;
30872;SDS011;17579;42.690;2.586;2024-03-29T10:26:44;3.10;;;1.40;;
30872;SDS011;17579;42.690;2.586;2024-03-29T10:29:13;4.00;;;1.70;;
30872;SDS011;17579;42.690;2.586;2024-03-29T10:31:44;3.33;;;1.70;;
30872;SDS011;17579;42.690;2.586;2024-03-29T10:34:10;6.75;;;2.00;;
30872;SDS011;17579;42.690;2.586;2024-03-29T10:36:35;4.78;;;2.00;;
30872;SDS011;17579;42.690;2.586;2024-03-29T10:39:13;3.80;;;1.70;;
30872;SDS011;17579;42.690;2.586;2024-03-29T10:41:41;5.53;;;1.80;;
30872;SDS011;17579;42.690;2.586;2024-03-29T10:44:11;3.15;;;1.67;;
30872;SDS011;17579;42.690;2.586;2024-03-29T10:46:44;3.63;;;1.63;;
30872;SDS011;17579;42.690;2.586;2024-03-29T10:49:13;2.33;;;1.50;;
30872;SDS011;17579;42.690;2.586;2024-03-29T10:51:45;3.92;;;1.50;;
30872;SDS011;17579;42.690;2.586;2024-03-29T10:54:13;5.63;;;1.65;;
30872;SDS011;17579;42.690;2.586;2024-03-29T10:56:40;3.88;;;1.65;;
30872;SDS011;17579;42.690;2.586;2024-03-29T10:59:16;3.60;;;1.80;;
30872;SDS011;17579;42.690;2.586;2024-03-29T11:02:00;3.90;;;1.75;;
30872;SDS011;17579;42.690;2.586;2024-03-29T11:04:43;2.15;;;1.20;;
30872;SDS011;17579;42.690;2.586;2024-03-29T11:07:19;4.13;;;1.42;;
30872;SDS011;17579;42.690;2.586;2024-03-29T11:09:50;3.53;;;1.17;;
30872;SDS011;17579;42.690;2.586;2024-03-29T11:12:25;3.78;;;1.20;;
30872;SDS011;17579;42.690;2.586;2024-03-29T11:14:55;2.00;;;1.20;;
30872;SDS011;17579;42.690;2.586;2024-03-29T11:17:30;3.20;;;1.23;;
30872;SDS011;17579;42.690;2.586;2024-03-29T11:19:59;4.55;;;1.33;;
30872;SDS011;17579;42.690;2.586;2024-03-29T11:22:49;3.30;;;1.42;;
30872;SDS011;17579;42.690;2.586;2024-03-29T11:25:52;2.15;;;1.15;;
30872;SDS011;17579;42.690;2.586;2024-03-29T11:28:28;2.20;;;1.08;;
30872;SDS011;17579;42.690;2.586;2024-03-29T11:31:01;3.13;;;1.05;;
30872;SDS011;17579;42.690;2.586;2024-03-29T11:33:44;3.42;;;1.27;;
30872;SDS011;17579;42.690;2.586;2024-03-29T11:38:52;1.75;;;1.05;;
30872;SDS011;17579;42.690;2.586;2024-03-29T11:41:27;1.30;;;0.90;;
30872;SDS011;17579;42.690;2.586;2024-03-29T11:43:56;1.90;;;1.00;;
30872;SDS011;17579;42.690;2.586;2024-03-29T11:46:22;1.52;;;0.80;;
30872;SDS011;17579;42.690;2.586;2024-03-29T11:49:00;2.03;;;0.80;;
30872;SDS011;17579;42.690;2.586;2024-03-29T11:51:26;3.22;;;0.80;;
30872;SDS011;17579;42.690;2.586;2024-03-29T11:53:59;1.92;;;0.88;;
30872;SDS011;17579;42.690;2.586;2024-03-29T11:56:35;2.45;;;1.00;;
30872;SDS011;17579;42.690;2.586;2024-03-29T11:59:03;1.67;;;1.10;;
30872;SDS011;17579;42.690;2.586;2024-03-29T12:01:31;1.05;;;0.75;;
30872;SDS011;17579;42.690;2.586;2024-03-29T12:04:01;0.68;;;0.60;;
30872;SDS011;17579;42.690;2.586;2024-03-29T12:06:27;1.50;;;0.88;;
30872;SDS011;17579;42.690;2.586;2024-03-29T12:08:53;0.82;;;0.80;;
30872;SDS011;17579;42.690;2.586;2024-03-29T12:11:22;0.70;;;0.70;;
30872;SDS011;17579;42.690;2.586;2024-03-29T12:13:53;2.15;;;1.05;;
30872;SDS011;17579;42.690;2.586;2024-03-29T12:16:24;0.98;;;0.70;;
30872;SDS011;17579;42.690;2.586;2024-03-29T12:18:52;0.63;;;0.60;;
30872;SDS011;17579;42.690;2.586;2024-03-29T12:21:17;2.05;;;1.25;;
30872;SDS011;17579;42.690;2.586;2024-03-29T12:23:49;1.35;;;0.77;;
30872;SDS011;17579;42.690;2.586;2024-03-29T12:26:17;1.55;;;0.88;;
30872;SDS011;17579;42.690;2.586;2024-03-29T12:28:47;1.38;;;0.70;;
30872;SDS011;17579;42.690;2.586;2024-03-29T12:31:19;1.67;;;0.70;;
30872;SDS011;17579;42.690;2.586;2024-03-29T12:33:52;2.60;;;0.80;;
30872;SDS011;17579;42.690;2.586;2024-03-29T12:36:26;1.73;;;0.70;;
30872;SDS011;17579;42.690;2.586;2024-03-29T12:39:00;7.75;;;1.02;;
30872;SDS011;17579;42.690;2.586;2024-03-29T12:41:34;1.25;;;0.90;;
30872;SDS011;17579;42.690;2.586;2024-03-29T12:44:03;0.93;;;0.70;;
30872;SDS011;17579;42.690;2.586;2024-03-29T12:46:32;2.50;;;0.75;;
30872;SDS011;17579;42.690;2.586;2024-03-29T12:49:01;2.90;;;0.80;;
30872;SDS011;17579;42.690;2.586;2024-03-29T12:51:27;0.80;;;0.63;;
30872;SDS011;17579;42.690;2.586;2024-03-29T12:54:01;1.55;;;0.93;;
30872;SDS011;17579;42.690;2.586;2024-03-29T12:56:38;2.03;;;0.98;;
30872;SDS011;17579;42.690;2.586;2024-03-29T12:59:14;1.08;;;0.73;;
30872;SDS011;17579;42.690;2.586;2024-03-29T13:01:48;0.80;;;0.80;;
30872;SDS011;17579;42.690;2.586;2024-03-29T13:04:14;1.58;;;1.00;;
30872;SDS011;17579;42.690;2.586;2024-03-29T13:06:39;1.58;;;0.90;;
30872;SDS011;17579;42.690;2.586;2024-03-29T13:09:14;3.13;;;1.20;;
30872;SDS011;17579;42.690;2.586;2024-03-29T13:11:39;4.65;;;0.95;;
30872;SDS011;17579;42.690;2.586;2024-03-29T13:14:06;2.42;;;1.00;;
30872;SDS011;17579;42.690;2.586;2024-03-29T13:16:49;1.33;;;0.90;;
30872;SDS011;17579;42.690;2.586;2024-03-29T13:19:15;1.70;;;1.13;;
30872;SDS011;17579;42.690;2.586;2024-03-29T13:22:03;1.08;;;0.70;;
30872;SDS011;17579;42.690;2.586;2024-03-29T13:24:40;1.70;;;1.00;;
30872;SDS011;17579;42.690;2.586;2024-03-29T13:27:16;1.25;;;0.95;;
30872;SDS011;17579;42.690;2.586;2024-03-29T13:29:41;1.45;;;1.08;;
30872;SDS011;17579;42.690;2.586;2024-03-29T13:32:14;1.63;;;1.20;;
30872;SDS011;17579;42.690;2.586;2024-03-29T13:34:39;2.65;;;1.17;;
30872;SDS011;17579;42.690;2.586;2024-03-29T13:37:05;2.85;;;1.17;;
30872;SDS011;17579;42.690;2.586;2024-03-29T13:39:31;3.58;;;1.40;;
30872;SDS011;17579;42.690;2.586;2024-03-29T13:41:57;2.67;;;1.25;;
30872;SDS011;17579;42.690;2.586;2024-03-29T13:44:25;2.22;;;1.17;;
30872;SDS011;17579;42.690;2.586;2024-03-29T13:47:08;3.83;;;1.50;;
30872;SDS011;17579;42.690;2.586;2024-03-29T13:49:41;2.45;;;1.48;;
30872;SDS011;17579;42.690;2.586;2024-03-29T13:52:12;3.92;;;1.30;;
30872;SDS011;17579;42.690;2.586;2024-03-29T13:54:49;8.07;;;1.15;;
30872;SDS011;17579;42.690;2.586;2024-03-29T13:57:40;3.00;;;1.52;;
30872;SDS011;17579;42.690;2.586;2024-03-29T14:00:06;5.53;;;1.80;;
30872;SDS011;17579;42.690;2.586;2024-03-29T14:02:51;2.55;;;1.17;;
30872;SDS011;17579;42.690;2.586;2024-03-29T14:05:17;4.05;;;1.20;;
30872;SDS011;17579;42.690;2.586;2024-03-29T14:07:49;2.50;;;1.30;;
30872;SDS011;17579;42.690;2.586;2024-03-29T14:10:26;5.40;;;1.70;;
30872;SDS011;17579;42.690;2.586;2024-03-29T14:12:51;3.35;;;1.05;;
30872;SDS011;17579;42.690;2.586;2024-03-29T14:15:23;2.28;;;1.13;;
30872;SDS011;17579;42.690;2.586;2024-03-29T14:17:52;4.15;;;1.40;;
30872;SDS011;17579;42.690;2.586;2024-03-29T14:20:22;2.85;;;1.15;;
30872;SDS011;17579;42.690;2.586;2024-03-29T14:22:57;3.88;;;1.85;;
30872;SDS011;17579;42.690;2.586;2024-03-29T14:25:28;2.30;;;1.30;;
30872;SDS011;17579;42.690;2.586;2024-03-29T14:28:09;2.67;;;1.10;;
30872;SDS011;17579;42.690;2.586;2024-03-29T14:30:37;5.13;;;1.40;;
30872;SDS011;17579;42.690;2.586;2024-03-29T14:33:02;5.03;;;1.30;;
30872;SDS011;17579;42.690;2.586;2024-03-29T14:35:34;1.80;;;0.93;;
30872;SDS011;17579;42.690;2.586;2024-03-29T14:38:11;1.70;;;1.20;;
30872;SDS011;17579;42.690;2.586;2024-03-29T14:40:39;1.33;;;1.17;;
30872;SDS011;17579;42.690;2.586;2024-03-29T14:43:12;1.38;;;0.73;;
30872;SDS011;17579;42.690;2.586;2024-03-29T14:45:42;1.77;;;0.95;;
30872;SDS011;17579;42.690;2.586;2024-03-29T14:48:09;2.45;;;0.90;;
30872;SDS011;17579;42.690;2.586;2024-03-29T14:50:39;8.57;;;1.20;;
30872;SDS011;17579;42.690;2.586;2024-03-29T14:53:05;1.50;;;0.90;;
30872;SDS011;17579;42.690;2.586;2024-03-29T14:55:47;1.83;;;0.88;;
30872;SDS011;17579;42.690;2.586;2024-03-29T14:58:27;3.30;;;1.08;;
30872;SDS011;17579;42.690;2.586;2024-03-29T15:01:21;1.98;;;0.90;;
30872;SDS011;17579;42.690;2.586;2024-03-29T15:04:07;1.25;;;0.85;;
30872;SDS011;17579;42.690;2.586;2024-03-29T15:06:36;2.75;;;0.90;;
30872;SDS011;17579;42.690;2.586;2024-03-29T15:09:02;1.30;;;0.90;;
30872;SDS011;17579;42.690;2.586;2024-03-29T15:11:42;2.05;;;0.80;;
30872;SDS011;17579;42.690;2.586;2024-03-29T15:14:07;1.98;;;0.88;;
30872;SDS011;17579;42.690;2.586;2024-03-29T15:16:35;8.23;;;1.20;;
30872;SDS011;17579;42.690;2.586;2024-03-29T15:19:06;2.55;;;1.13;;
30872;SDS011;17579;42.690;2.586;2024-03-29T15:21:35;3.85;;;1.10;;